Columbia (COU/KCOU)

Map

Destinations

Information

Location
Columbia, Missouri
Local Time
21:22 / 9:22 pm
GMT Time
02:22 / 2:22 am
Gates
Unassigned
No FAA reported delays
METAR KCOU 280154Z 02005KT 10SM OVC010 12/12 A2994 RMK AO2 RAE08 SLP136 P0001 T01220117
TAF KCOU 280134Z 2802/2824 34006KT P6SM OVC010 FM280600 36005KT 5SM BR OVC005 FM281700 06007KT P6SM BKN015 FM282100 07008KT P6SM BKN035
  • No charts available